sensor_id;sensor_type;location;lat;lon;timestamp;temperature;humidity
45693;DHT22;31402;44.752;-0.374;2022-09-21T00:00:04;18.30;72.40
45693;DHT22;31402;44.752;-0.374;2022-09-21T00:02:30;18.30;72.60
45693;DHT22;31402;44.752;-0.374;2022-09-21T00:04:56;18.30;72.50
45693;DHT22;31402;44.752;-0.374;2022-09-21T00:07:22;18.20;72.40
45693;DHT22;31402;44.752;-0.374;2022-09-21T00:09:47;18.30;72.60
45693;DHT22;31402;44.752;-0.374;2022-09-21T00:12:13;18.10;72.70
45693;DHT22;31402;44.752;-0.374;2022-09-21T00:14:39;18.10;72.90
45693;DHT22;31402;44.752;-0.374;2022-09-21T00:17:06;18.10;73.20
45693;DHT22;31402;44.752;-0.374;2022-09-21T00:19:34;18.10;72.80
45693;DHT22;31402;44.752;-0.374;2022-09-21T00:22:00;18.10;72.90
45693;DHT22;31402;44.752;-0.374;2022-09-21T00:24:25;18.10;72.80
45693;DHT22;31402;44.752;-0.374;2022-09-21T00:26:52;18.20;72.60
45693;DHT22;31402;44.752;-0.374;2022-09-21T00:29:18;18.10;72.80
45693;DHT22;31402;44.752;-0.374;2022-09-21T00:31:43;18.10;72.60
45693;DHT22;31402;44.752;-0.374;2022-09-21T00:34:09;18.10;72.80
45693;DHT22;31402;44.752;-0.374;2022-09-21T00:36:35;18.00;72.90
45693;DHT22;31402;44.752;-0.374;2022-09-21T00:39:01;17.90;73.10
45693;DHT22;31402;44.752;-0.374;2022-09-21T00:41:28;17.80;73.30
45693;DHT22;31402;44.752;-0.374;2022-09-21T00:44:24;17.90;73.30
45693;DHT22;31402;44.752;-0.374;2022-09-21T00:46:52;17.80;73.60
45693;DHT22;31402;44.752;-0.374;2022-09-21T00:49:19;17.70;74.00
45693;DHT22;31402;44.752;-0.374;2022-09-21T00:51:46;17.70;73.80
45693;DHT22;31402;44.752;-0.374;2022-09-21T00:54:17;17.60;73.90
45693;DHT22;31402;44.752;-0.374;2022-09-21T00:56:44;17.50;74.20
45693;DHT22;31402;44.752;-0.374;2022-09-21T00:59:11;17.60;74.10
45693;DHT22;31402;44.752;-0.374;2022-09-21T01:01:38;17.60;73.90
45693;DHT22;31402;44.752;-0.374;2022-09-21T01:04:05;17.50;74.20
45693;DHT22;31402;44.752;-0.374;2022-09-21T01:06:32;17.50;74.20
45693;DHT22;31402;44.752;-0.374;2022-09-21T01:08:59;17.50;74.20
45693;DHT22;31402;44.752;-0.374;2022-09-21T01:30:37;17.10;75.00
45693;DHT22;31402;44.752;-0.374;2022-09-21T01:33:10;17.10;75.30
45693;DHT22;31402;44.752;-0.374;2022-09-21T01:35:43;17.10;75.60
45693;DHT22;31402;44.752;-0.374;2022-09-21T01:38:18;17.00;75.50
45693;DHT22;31402;44.752;-0.374;2022-09-21T01:40:50;16.90;75.80
45693;DHT22;31402;44.752;-0.374;2022-09-21T01:43:21;16.90;75.90
45693;DHT22;31402;44.752;-0.374;2022-09-21T01:45:51;16.80;76.00
45693;DHT22;31402;44.752;-0.374;2022-09-21T01:48:20;16.80;76.40
45693;DHT22;31402;44.752;-0.374;2022-09-21T01:50:54;16.70;76.20
45693;DHT22;31402;44.752;-0.374;2022-09-21T01:53:33;16.70;76.40
45693;DHT22;31402;44.752;-0.374;2022-09-21T01:56:05;16.70;76.50
45693;DHT22;31402;44.752;-0.374;2022-09-21T01:58:38;16.60;76.70
45693;DHT22;31402;44.752;-0.374;2022-09-21T02:01:08;16.60;76.50
45693;DHT22;31402;44.752;-0.374;2022-09-21T02:03:44;16.60;76.70
45693;DHT22;31402;44.752;-0.374;2022-09-21T02:06:12;16.60;76.80
45693;DHT22;31402;44.752;-0.374;2022-09-21T02:08:39;16.60;76.50
45693;DHT22;31402;44.752;-0.374;2022-09-21T02:11:07;16.60;76.40
45693;DHT22;31402;44.752;-0.374;2022-09-21T02:13:35;16.60;76.20
45693;DHT22;31402;44.752;-0.374;2022-09-21T02:16:17;16.70;76.10
45693;DHT22;31402;44.752;-0.374;2022-09-21T02:19:54;16.80;75.90
45693;DHT22;31402;44.752;-0.374;2022-09-21T02:27:06;16.60;76.30
45693;DHT22;31402;44.752;-0.374;2022-09-21T02:30:04;16.50;76.50
45693;DHT22;31402;44.752;-0.374;2022-09-21T02:35:31;16.50;76.40
45693;DHT22;31402;44.752;-0.374;2022-09-21T02:43:30;16.20;77.50
45693;DHT22;31402;44.752;-0.374;2022-09-21T02:46:03;16.30;77.10
45693;DHT22;31402;44.752;-0.374;2022-09-21T02:48:38;16.30;77.00
45693;DHT22;31402;44.752;-0.374;2022-09-21T02:51:10;16.20;77.60
45693;DHT22;31402;44.752;-0.374;2022-09-21T02:53:40;16.10;77.60
45693;DHT22;31402;44.752;-0.374;2022-09-21T02:56:07;16.10;77.80
45693;DHT22;31402;44.752;-0.374;2022-09-21T03:01:28;16.10;78.20
45693;DHT22;31402;44.752;-0.374;2022-09-21T03:03:54;16.10;77.80
45693;DHT22;31402;44.752;-0.374;2022-09-21T03:06:19;16.10;78.10
45693;DHT22;31402;44.752;-0.374;2022-09-21T03:08:45;16.00;78.20
45693;DHT22;31402;44.752;-0.374;2022-09-21T03:11:16;15.90;78.60
45693;DHT22;31402;44.752;-0.374;2022-09-21T03:13:42;15.90;78.50
45693;DHT22;31402;44.752;-0.374;2022-09-21T03:16:09;15.90;78.40
45693;DHT22;31402;44.752;-0.374;2022-09-21T03:18:35;15.90;78.60
45693;DHT22;31402;44.752;-0.374;2022-09-21T03:21:01;15.90;78.80
45693;DHT22;31402;44.752;-0.374;2022-09-21T03:23:28;15.90;78.60
45693;DHT22;31402;44.752;-0.374;2022-09-21T03:25:53;15.80;78.80
45693;DHT22;31402;44.752;-0.374;2022-09-21T03:28:20;15.70;78.90
45693;DHT22;31402;44.752;-0.374;2022-09-21T03:30:48;15.80;78.60
45693;DHT22;31402;44.752;-0.374;2022-09-21T03:33:15;15.80;78.90
45693;DHT22;31402;44.752;-0.374;2022-09-21T03:35:40;15.70;79.10
45693;DHT22;31402;44.752;-0.374;2022-09-21T03:38:07;15.70;79.20
45693;DHT22;31402;44.752;-0.374;2022-09-21T03:40:33;15.60;79.30
45693;DHT22;31402;44.752;-0.374;2022-09-21T03:42:59;15.50;79.60
45693;DHT22;31402;44.752;-0.374;2022-09-21T03:45:25;15.50;79.80
45693;DHT22;31402;44.752;-0.374;2022-09-21T03:47:57;15.50;80.00
45693;DHT22;31402;44.752;-0.374;2022-09-21T03:50:27;15.60;79.80
45693;DHT22;31402;44.752;-0.374;2022-09-21T03:52:54;15.50;79.80
45693;DHT22;31402;44.752;-0.374;2022-09-21T03:55:20;15.50;79.80
45693;DHT22;31402;44.752;-0.374;2022-09-21T03:57:47;15.50;79.80
45693;DHT22;31402;44.752;-0.374;2022-09-21T04:00:13;15.60;79.70
45693;DHT22;31402;44.752;-0.374;2022-09-21T04:02:39;15.50;79.60
45693;DHT22;31402;44.752;-0.374;2022-09-21T04:05:09;15.40;79.90
45693;DHT22;31402;44.752;-0.374;2022-09-21T04:07:36;15.30;80.30
45693;DHT22;31402;44.752;-0.374;2022-09-21T04:10:03;15.30;80.40
45693;DHT22;31402;44.752;-0.374;2022-09-21T04:12:30;15.20;80.60
45693;DHT22;31402;44.752;-0.374;2022-09-21T04:14:57;15.20;80.80
45693;DHT22;31402;44.752;-0.374;2022-09-21T04:17:23;15.40;80.40
45693;DHT22;31402;44.752;-0.374;2022-09-21T04:19:49;15.30;80.50
45693;DHT22;31402;44.752;-0.374;2022-09-21T04:22:14;15.20;80.60
45693;DHT22;31402;44.752;-0.374;2022-09-21T04:24:40;15.20;80.60
45693;DHT22;31402;44.752;-0.374;2022-09-21T04:27:07;15.20;80.80
45693;DHT22;31402;44.752;-0.374;2022-09-21T04:29:33;15.30;80.70
45693;DHT22;31402;44.752;-0.374;2022-09-21T04:31:59;15.30;81.20
45693;DHT22;31402;44.752;-0.374;2022-09-21T04:34:24;15.20;80.60
45693;DHT22;31402;44.752;-0.374;2022-09-21T04:36:51;15.20;80.70
45693;DHT22;31402;44.752;-0.374;2022-09-21T04:39:18;15.20;81.20
45693;DHT22;31402;44.752;-0.374;2022-09-21T04:41:44;15.10;83.40
45693;DHT22;31402;44.752;-0.374;2022-09-21T04:44:10;15.20;84.30
45693;DHT22;31402;44.752;-0.374;2022-09-21T04:46:36;15.20;83.80
45693;DHT22;31402;44.752;-0.374;2022-09-21T04:49:02;15.20;84.20
45693;DHT22;31402;44.752;-0.374;2022-09-21T04:51:28;15.20;84.20
45693;DHT22;31402;44.752;-0.374;2022-09-21T04:53:55;15.20;83.10
45693;DHT22;31402;44.752;-0.374;2022-09-21T04:56:21;15.20;84.60
45693;DHT22;31402;44.752;-0.374;2022-09-21T04:58:46;15.20;84.90
45693;DHT22;31402;44.752;-0.374;2022-09-21T05:01:12;15.20;83.80
45693;DHT22;31402;44.752;-0.374;2022-09-21T05:03:38;15.30;84.00
45693;DHT22;31402;44.752;-0.374;2022-09-21T05:06:04;15.30;83.40
45693;DHT22;31402;44.752;-0.374;2022-09-21T05:08:30;15.20;83.60
45693;DHT22;31402;44.752;-0.374;2022-09-21T05:11:17;15.10;82.50
45693;DHT22;31402;44.752;-0.374;2022-09-21T05:13:47;15.00;83.20
45693;DHT22;31402;44.752;-0.374;2022-09-21T05:16:14;15.00;83.10
45693;DHT22;31402;44.752;-0.374;2022-09-21T05:18:40;14.90;83.00
45693;DHT22;31402;44.752;-0.374;2022-09-21T05:21:06;15.00;83.50
45693;DHT22;31402;44.752;-0.374;2022-09-21T05:23:32;14.90;82.30
45693;DHT22;31402;44.752;-0.374;2022-09-21T05:25:58;14.70;82.60
45693;DHT22;31402;44.752;-0.374;2022-09-21T05:28:25;14.70;83.00
45693;DHT22;31402;44.752;-0.374;2022-09-21T05:33:27;14.60;83.10
45693;DHT22;31402;44.752;-0.374;2022-09-21T05:39:00;14.50;83.10
45693;DHT22;31402;44.752;-0.374;2022-09-21T05:41:27;14.40;83.30
45693;DHT22;31402;44.752;-0.374;2022-09-21T05:43:52;14.40;83.30
45693;DHT22;31402;44.752;-0.374;2022-09-21T05:49:21;14.30;83.40
45693;DHT22;31402;44.752;-0.374;2022-09-21T05:52:00;14.30;84.20
45693;DHT22;31402;44.752;-0.374;2022-09-21T06:04:52;16.30;79.50
45693;DHT22;31402;44.752;-0.374;2022-09-21T06:07:20;16.90;78.00
45693;DHT22;31402;44.752;-0.374;2022-09-21T06:09:46;17.60;76.20
45693;DHT22;31402;44.752;-0.374;2022-09-21T06:12:12;18.30;74.40
45693;DHT22;31402;44.752;-0.374;2022-09-21T06:14:38;19.00;72.90
45693;DHT22;31402;44.752;-0.374;2022-09-21T06:17:03;19.90;71.40
45693;DHT22;31402;44.752;-0.374;2022-09-21T06:19:29;20.80;70.10
45693;DHT22;31402;44.752;-0.374;2022-09-21T06:21:55;21.40;67.30
45693;DHT22;31402;44.752;-0.374;2022-09-21T06:24:20;22.10;65.60
45693;DHT22;31402;44.752;-0.374;2022-09-21T06:26:46;22.40;64.50
45693;DHT22;31402;44.752;-0.374;2022-09-21T06:29:12;22.60;63.90
45693;DHT22;31402;44.752;-0.374;2022-09-21T06:31:38;22.90;63.00
45693;DHT22;31402;44.752;-0.374;2022-09-21T06:34:03;23.40;62.20
45693;DHT22;31402;44.752;-0.374;2022-09-21T06:36:29;23.70;61.20
45693;DHT22;31402;44.752;-0.374;2022-09-21T06:38:55;23.80;60.90
45693;DHT22;31402;44.752;-0.374;2022-09-21T06:41:21;24.10;60.60
45693;DHT22;31402;44.752;-0.374;2022-09-21T06:43:47;24.20;60.30
45693;DHT22;31402;44.752;-0.374;2022-09-21T06:46:13;24.00;60.00
45693;DHT22;31402;44.752;-0.374;2022-09-21T06:48:38;23.40;61.00
45693;DHT22;31402;44.752;-0.374;2022-09-21T06:51:05;22.70;61.90
45693;DHT22;31402;44.752;-0.374;2022-09-21T06:53:32;21.80;63.90
45693;DHT22;31402;44.752;-0.374;2022-09-21T06:56:05;21.00;65.90
45693;DHT22;31402;44.752;-0.374;2022-09-21T06:58:31;20.40;67.40
45693;DHT22;31402;44.752;-0.374;2022-09-21T07:01:07;20.10;68.80
45693;DHT22;31402;44.752;-0.374;2022-09-21T07:03:33;19.60;70.60
45693;DHT22;31402;44.752;-0.374;2022-09-21T07:05:59;19.60;70.10
45693;DHT22;31402;44.752;-0.374;2022-09-21T07:08:25;19.40;70.70
45693;DHT22;31402;44.752;-0.374;2022-09-21T07:10:52;19.20;72.50
45693;DHT22;31402;44.752;-0.374;2022-09-21T07:13:18;19.20;71.40
45693;DHT22;31402;44.752;-0.374;2022-09-21T07:15:44;19.20;71.90
45693;DHT22;31402;44.752;-0.374;2022-09-21T07:18:12;19.30;71.10
45693;DHT22;31402;44.752;-0.374;2022-09-21T07:20:39;19.10;71.80
45693;DHT22;31402;44.752;-0.374;2022-09-21T07:23:12;19.20;71.10
45693;DHT22;31402;44.752;-0.374;2022-09-21T07:25:42;19.30;71.30
45693;DHT22;31402;44.752;-0.374;2022-09-21T07:28:09;19.30;71.00
45693;DHT22;31402;44.752;-0.374;2022-09-21T07:30:36;19.20;71.20
45693;DHT22;31402;44.752;-0.374;2022-09-21T07:33:03;19.20;71.40
45693;DHT22;31402;44.752;-0.374;2022-09-21T07:35:30;19.20;71.20
45693;DHT22;31402;44.752;-0.374;2022-09-21T07:38:04;19.20;71.50
45693;DHT22;31402;44.752;-0.374;2022-09-21T07:40:30;19.20;71.50
45693;DHT22;31402;44.752;-0.374;2022-09-21T07:42:59;19.20;71.20
45693;DHT22;31402;44.752;-0.374;2022-09-21T07:45:29;19.20;71.10
45693;DHT22;31402;44.752;-0.374;2022-09-21T07:48:05;19.20;71.50
45693;DHT22;31402;44.752;-0.374;2022-09-21T07:50:31;19.20;71.70
45693;DHT22;31402;44.752;-0.374;2022-09-21T07:53:01;19.20;71.80
45693;DHT22;31402;44.752;-0.374;2022-09-21T07:55:28;19.30;71.70
45693;DHT22;31402;44.752;-0.374;2022-09-21T07:57:53;19.30;71.50
45693;DHT22;31402;44.752;-0.374;2022-09-21T08:00:38;19.30;71.40
45693;DHT22;31402;44.752;-0.374;2022-09-21T08:03:04;19.30;72.20
45693;DHT22;31402;44.752;-0.374;2022-09-21T08:05:31;19.20;72.50
45693;DHT22;31402;44.752;-0.374;2022-09-21T08:07:57;19.40;72.20
45693;DHT22;31402;44.752;-0.374;2022-09-21T08:10:24;19.50;71.20
45693;DHT22;31402;44.752;-0.374;2022-09-21T08:12:52;19.50;71.20
45693;DHT22;31402;44.752;-0.374;2022-09-21T08:15:18;19.70;71.30
45693;DHT22;31402;44.752;-0.374;2022-09-21T08:17:44;19.80;70.60
45693;DHT22;31402;44.752;-0.374;2022-09-21T08:20:10;19.70;71.00
45693;DHT22;31402;44.752;-0.374;2022-09-21T08:22:35;19.70;70.90
45693;DHT22;31402;44.752;-0.374;2022-09-21T08:25:02;19.80;70.60
45693;DHT22;31402;44.752;-0.374;2022-09-21T08:27:29;19.90;71.20
45693;DHT22;31402;44.752;-0.374;2022-09-21T08:29:55;19.90;70.40
45693;DHT22;31402;44.752;-0.374;2022-09-21T08:32:20;20.10;70.30
45693;DHT22;31402;44.752;-0.374;2022-09-21T08:34:46;20.10;69.10
45693;DHT22;31402;44.752;-0.374;2022-09-21T08:37:13;20.10;69.20
45693;DHT22;31402;44.752;-0.374;2022-09-21T08:39:40;20.10;70.00
45693;DHT22;31402;44.752;-0.374;2022-09-21T08:44:57;20.20;69.50
45693;DHT22;31402;44.752;-0.374;2022-09-21T08:47:43;20.30;69.80
45693;DHT22;31402;44.752;-0.374;2022-09-21T08:50:27;20.30;69.60
45693;DHT22;31402;44.752;-0.374;2022-09-21T08:52:59;20.40;69.70
45693;DHT22;31402;44.752;-0.374;2022-09-21T08:55:25;20.50;69.90
45693;DHT22;31402;44.752;-0.374;2022-09-21T08:57:52;20.60;70.00
45693;DHT22;31402;44.752;-0.374;2022-09-21T09:00:18;20.70;69.30
45693;DHT22;31402;44.752;-0.374;2022-09-21T09:03:17;20.90;69.30
45693;DHT22;31402;44.752;-0.374;2022-09-21T09:05:58;21.00;68.30
45693;DHT22;31402;44.752;-0.374;2022-09-21T09:14:10;21.30;68.10
45693;DHT22;31402;44.752;-0.374;2022-09-21T09:17:02;21.50;68.40
45693;DHT22;31402;44.752;-0.374;2022-09-21T09:22:03;21.80;65.80
45693;DHT22;31402;44.752;-0.374;2022-09-21T09:24:49;21.80;66.30
45693;DHT22;31402;44.752;-0.374;2022-09-21T09:27:34;21.90;66.30
45693;DHT22;31402;44.752;-0.374;2022-09-21T09:30:05;21.90;65.70
45693;DHT22;31402;44.752;-0.374;2022-09-21T09:35:29;22.20;64.90
45693;DHT22;31402;44.752;-0.374;2022-09-21T09:38:13;22.10;65.30
45693;DHT22;31402;44.752;-0.374;2022-09-21T09:51:27;22.60;64.70
45693;DHT22;31402;44.752;-0.374;2022-09-21T09:53:57;22.60;64.50
45693;DHT22;31402;44.752;-0.374;2022-09-21T09:56:24;22.70;63.50
45693;DHT22;31402;44.752;-0.374;2022-09-21T09:58:56;22.70;63.40
45693;DHT22;31402;44.752;-0.374;2022-09-21T10:01:37;22.70;63.50
45693;DHT22;31402;44.752;-0.374;2022-09-21T10:04:07;22.70;64.10
45693;DHT22;31402;44.752;-0.374;2022-09-21T10:06:34;22.60;64.10
45693;DHT22;31402;44.752;-0.374;2022-09-21T10:08:59;22.70;63.70
45693;DHT22;31402;44.752;-0.374;2022-09-21T10:11:36;22.80;63.10
45693;DHT22;31402;44.752;-0.374;2022-09-21T10:14:11;22.70;64.00
45693;DHT22;31402;44.752;-0.374;2022-09-21T10:16:40;22.70;63.00
45693;DHT22;31402;44.752;-0.374;2022-09-21T10:19:17;22.70;63.80
45693;DHT22;31402;44.752;-0.374;2022-09-21T10:21:44;22.60;64.40
45693;DHT22;31402;44.752;-0.374;2022-09-21T10:24:34;22.70;63.50
45693;DHT22;31402;44.752;-0.374;2022-09-21T10:27:12;22.90;64.00
45693;DHT22;31402;44.752;-0.374;2022-09-21T10:29:44;22.90;63.70
45693;DHT22;31402;44.752;-0.374;2022-09-21T10:37:30;23.30;62.40
45693;DHT22;31402;44.752;-0.374;2022-09-21T10:39:59;23.30;62.40
45693;DHT22;31402;44.752;-0.374;2022-09-21T10:42:35;23.30;63.30
45693;DHT22;31402;44.752;-0.374;2022-09-21T10:47:46;23.30;63.40
45693;DHT22;31402;44.752;-0.374;2022-09-21T10:52:55;23.70;61.10
45693;DHT22;31402;44.752;-0.374;2022-09-21T10:55:23;23.70;61.20
45693;DHT22;31402;44.752;-0.374;2022-09-21T10:57:50;23.70;61.00
45693;DHT22;31402;44.752;-0.374;2022-09-21T11:02:48;23.80;61.40
45693;DHT22;31402;44.752;-0.374;2022-09-21T11:05:21;23.80;60.80
45693;DHT22;31402;44.752;-0.374;2022-09-21T11:08:04;23.90;61.40
45693;DHT22;31402;44.752;-0.374;2022-09-21T11:10:45;24.10;59.80
45693;DHT22;31402;44.752;-0.374;2022-09-21T11:13:22;24.00;60.00
45693;DHT22;31402;44.752;-0.374;2022-09-21T11:16:00;23.90;60.30
45693;DHT22;31402;44.752;-0.374;2022-09-21T11:21:43;24.00;60.10
45693;DHT22;31402;44.752;-0.374;2022-09-21T11:27:17;23.90;61.80
45693;DHT22;31402;44.752;-0.374;2022-09-21T12:04:48;24.80;59.10
45693;DHT22;31402;44.752;-0.374;2022-09-21T12:10:14;25.20;57.40
45693;DHT22;31402;44.752;-0.374;2022-09-21T12:12:56;25.20;57.90
45693;DHT22;31402;44.752;-0.374;2022-09-21T12:15:37;25.20;57.90
45693;DHT22;31402;44.752;-0.374;2022-09-21T12:18:10;25.20;57.60
45693;DHT22;31402;44.752;-0.374;2022-09-21T12:23:18;25.30;57.90
45693;DHT22;31402;44.752;-0.374;2022-09-21T12:25:49;25.20;58.10
45693;DHT22;31402;44.752;-0.374;2022-09-21T12:28:30;25.30;59.20
45693;DHT22;31402;44.752;-0.374;2022-09-21T12:31:09;25.30;58.20
45693;DHT22;31402;44.752;-0.374;2022-09-21T12:34:01;25.30;58.40
45693;DHT22;31402;44.752;-0.374;2022-09-21T12:36:34;25.40;57.80
45693;DHT22;31402;44.752;-0.374;2022-09-21T12:39:26;25.50;57.40
45693;DHT22;31402;44.752;-0.374;2022-09-21T12:42:04;25.60;56.80
45693;DHT22;31402;44.752;-0.374;2022-09-21T12:44:44;25.80;56.10
45693;DHT22;31402;44.752;-0.374;2022-09-21T12:47:47;25.90;55.80
45693;DHT22;31402;44.752;-0.374;2022-09-21T12:52:51;25.70;56.20
45693;DHT22;31402;44.752;-0.374;2022-09-21T12:55:42;25.70;55.30
45693;DHT22;31402;44.752;-0.374;2022-09-21T12:58:47;25.70;55.30
45693;DHT22;31402;44.752;-0.374;2022-09-21T13:01:19;25.80;55.00
45693;DHT22;31402;44.752;-0.374;2022-09-21T13:09:43;25.70;55.70
45693;DHT22;31402;44.752;-0.374;2022-09-21T13:15:02;25.60;55.50
45693;DHT22;31402;44.752;-0.374;2022-09-21T13:17:30;26.00;54.80
45693;DHT22;31402;44.752;-0.374;2022-09-21T13:20:06;25.90;54.50
45693;DHT22;31402;44.752;-0.374;2022-09-21T13:22:39;25.80;54.40
45693;DHT22;31402;44.752;-0.374;2022-09-21T13:25:17;25.90;54.00
45693;DHT22;31402;44.752;-0.374;2022-09-21T13:30:42;25.90;54.60
45693;DHT22;31402;44.752;-0.374;2022-09-21T13:33:29;25.80;56.10
45693;DHT22;31402;44.752;-0.374;2022-09-21T13:38:30;25.90;55.20
45693;DHT22;31402;44.752;-0.374;2022-09-21T13:41:01;26.00;54.40
45693;DHT22;31402;44.752;-0.374;2022-09-21T13:43:44;26.00;54.20
45693;DHT22;31402;44.752;-0.374;2022-09-21T13:54:15;26.30;52.70
45693;DHT22;31402;44.752;-0.374;2022-09-21T13:56:42;26.00;52.80
45693;DHT22;31402;44.752;-0.374;2022-09-21T13:59:23;25.90;53.30
45693;DHT22;31402;44.752;-0.374;2022-09-21T14:01:50;25.90;53.60
45693;DHT22;31402;44.752;-0.374;2022-09-21T14:04:35;25.90;53.90
45693;DHT22;31402;44.752;-0.374;2022-09-21T14:07:05;26.10;52.90
45693;DHT22;31402;44.752;-0.374;2022-09-21T14:09:51;26.20;53.50
45693;DHT22;31402;44.752;-0.374;2022-09-21T14:12:21;26.20;53.10
45693;DHT22;31402;44.752;-0.374;2022-09-21T14:17:44;26.10;53.40
45693;DHT22;31402;44.752;-0.374;2022-09-21T14:20:28;26.20;52.70
45693;DHT22;31402;44.752;-0.374;2022-09-21T14:25:50;26.30;52.10
45693;DHT22;31402;44.752;-0.374;2022-09-21T14:28:42;26.20;52.70
45693;DHT22;31402;44.752;-0.374;2022-09-21T14:31:13;26.10;52.80
45693;DHT22;31402;44.752;-0.374;2022-09-21T14:33:47;26.00;53.40
45693;DHT22;31402;44.752;-0.374;2022-09-21T14:36:19;26.10;52.90
45693;DHT22;31402;44.752;-0.374;2022-09-21T14:38:54;26.30;52.30
45693;DHT22;31402;44.752;-0.374;2022-09-21T14:41:23;26.30;52.80
45693;DHT22;31402;44.752;-0.374;2022-09-21T14:43:52;26.20;53.10
45693;DHT22;31402;44.752;-0.374;2022-09-21T14:51:41;26.30;52.30
45693;DHT22;31402;44.752;-0.374;2022-09-21T14:54:36;26.30;52.30
45693;DHT22;31402;44.752;-0.374;2022-09-21T15:00:11;26.50;51.40
45693;DHT22;31402;44.752;-0.374;2022-09-21T15:02:41;26.60;51.20
45693;DHT22;31402;44.752;-0.374;2022-09-21T15:13:58;26.10;53.40
45693;DHT22;31402;44.752;-0.374;2022-09-21T15:16:38;26.20;53.30
45693;DHT22;31402;44.752;-0.374;2022-09-21T15:19:20;26.10;54.20
45693;DHT22;31402;44.752;-0.374;2022-09-21T15:21:50;26.10;53.50
45693;DHT22;31402;44.752;-0.374;2022-09-21T15:26:45;26.10;53.00
45693;DHT22;31402;44.752;-0.374;2022-09-21T15:29:25;26.20;52.50
45693;DHT22;31402;44.752;-0.374;2022-09-21T15:31:52;26.10;54.40
45693;DHT22;31402;44.752;-0.374;2022-09-21T15:34:18;26.10;53.50
45693;DHT22;31402;44.752;-0.374;2022-09-21T15:36:45;26.10;52.80
45693;DHT22;31402;44.752;-0.374;2022-09-21T15:39:30;26.00;52.60
45693;DHT22;31402;44.752;-0.374;2022-09-21T15:42:16;26.10;52.70
45693;DHT22;31402;44.752;-0.374;2022-09-21T15:44:46;26.00;52.90
45693;DHT22;31402;44.752;-0.374;2022-09-21T15:47:15;25.90;52.80
45693;DHT22;31402;44.752;-0.374;2022-09-21T15:49:42;26.10;52.00
45693;DHT22;31402;44.752;-0.374;2022-09-21T15:52:30;26.00;52.50
45693;DHT22;31402;44.752;-0.374;2022-09-21T15:55:06;25.90;52.90
45693;DHT22;31402;44.752;-0.374;2022-09-21T15:57:37;25.90;53.10
45693;DHT22;31402;44.752;-0.374;2022-09-21T16:00:26;25.80;53.30
45693;DHT22;31402;44.752;-0.374;2022-09-21T16:03:04;25.90;53.10
45693;DHT22;31402;44.752;-0.374;2022-09-21T16:05:40;25.90;52.90
45693;DHT22;31402;44.752;-0.374;2022-09-21T16:08:35;26.00;52.50
45693;DHT22;31402;44.752;-0.374;2022-09-21T16:11:32;25.90;52.40
45693;DHT22;31402;44.752;-0.374;2022-09-21T16:14:11;25.90;52.80
45693;DHT22;31402;44.752;-0.374;2022-09-21T16:17:20;25.80;53.10
45693;DHT22;31402;44.752;-0.374;2022-09-21T16:22:30;25.80;52.30
45693;DHT22;31402;44.752;-0.374;2022-09-21T16:25:01;25.70;52.70
45693;DHT22;31402;44.752;-0.374;2022-09-21T16:27:30;25.80;52.30
45693;DHT22;31402;44.752;-0.374;2022-09-21T16:29:57;25.80;52.10
45693;DHT22;31402;44.752;-0.374;2022-09-21T16:32:32;25.80;52.30
45693;DHT22;31402;44.752;-0.374;2022-09-21T16:35:21;25.70;52.20
45693;DHT22;31402;44.752;-0.374;2022-09-21T16:37:49;25.60;51.90
45693;DHT22;31402;44.752;-0.374;2022-09-21T16:40:16;25.50;52.10
45693;DHT22;31402;44.752;-0.374;2022-09-21T16:42:42;25.50;52.50
45693;DHT22;31402;44.752;-0.374;2022-09-21T16:45:21;25.40;52.60
45693;DHT22;31402;44.752;-0.374;2022-09-21T16:47:47;25.40;52.60
45693;DHT22;31402;44.752;-0.374;2022-09-21T16:50:13;25.50;52.50
45693;DHT22;31402;44.752;-0.374;2022-09-21T16:52:44;25.50;52.10
45693;DHT22;31402;44.752;-0.374;2022-09-21T16:55:13;25.40;52.20
45693;DHT22;31402;44.752;-0.374;2022-09-21T16:57:42;25.30;52.60
45693;DHT22;31402;44.752;-0.374;2022-09-21T17:00:12;25.30;52.50
45693;DHT22;31402;44.752;-0.374;2022-09-21T17:02:38;25.20;52.40
45693;DHT22;31402;44.752;-0.374;2022-09-21T17:05:08;25.20;52.30
45693;DHT22;31402;44.752;-0.374;2022-09-21T17:07:33;25.10;52.60
45693;DHT22;31402;44.752;-0.374;2022-09-21T17:10:00;25.10;52.60
45693;DHT22;31402;44.752;-0.374;2022-09-21T17:12:26;25.10;52.20
45693;DHT22;31402;44.752;-0.374;2022-09-21T17:14:52;25.00;52.30
45693;DHT22;31402;44.752;-0.374;2022-09-21T17:17:21;24.90;52.60
45693;DHT22;31402;44.752;-0.374;2022-09-21T17:19:48;24.90;52.90
45693;DHT22;31402;44.752;-0.374;2022-09-21T17:22:15;24.80;53.20
45693;DHT22;31402;44.752;-0.374;2022-09-21T17:24:48;24.80;53.40
45693;DHT22;31402;44.752;-0.374;2022-09-21T17:27:16;24.70;53.60
45693;DHT22;31402;44.752;-0.374;2022-09-21T17:29:43;24.70;54.00
45693;DHT22;31402;44.752;-0.374;2022-09-21T17:32:18;24.70;53.90
45693;DHT22;31402;44.752;-0.374;2022-09-21T17:34:54;24.60;54.10
45693;DHT22;31402;44.752;-0.374;2022-09-21T17:37:22;24.60;54.10
45693;DHT22;31402;44.752;-0.374;2022-09-21T17:39:48;24.50;53.90
45693;DHT22;31402;44.752;-0.374;2022-09-21T17:42:17;24.50;54.10
45693;DHT22;31402;44.752;-0.374;2022-09-21T17:47:22;24.40;54.30
45693;DHT22;31402;44.752;-0.374;2022-09-21T17:49:50;24.30;54.60
45693;DHT22;31402;44.752;-0.374;2022-09-21T17:52:18;24.30;54.80
45693;DHT22;31402;44.752;-0.374;2022-09-21T17:55:05;24.30;54.70
45693;DHT22;31402;44.752;-0.374;2022-09-21T18:00:27;24.10;54.90
45693;DHT22;31402;44.752;-0.374;2022-09-21T18:02:55;24.00;54.80
45693;DHT22;31402;44.752;-0.374;2022-09-21T18:05:24;24.00;55.50
45693;DHT22;31402;44.752;-0.374;2022-09-21T18:07:51;24.00;55.60
45693;DHT22;31402;44.752;-0.374;2022-09-21T18:10:21;23.90;55.80
45693;DHT22;31402;44.752;-0.374;2022-09-21T18:13:04;23.80;55.50
45693;DHT22;31402;44.752;-0.374;2022-09-21T18:15:37;23.80;55.50
45693;DHT22;31402;44.752;-0.374;2022-09-21T18:18:18;23.70;55.60
45693;DHT22;31402;44.752;-0.374;2022-09-21T18:21:02;23.70;55.60
45693;DHT22;31402;44.752;-0.374;2022-09-21T18:26:19;23.60;55.70
45693;DHT22;31402;44.752;-0.374;2022-09-21T18:28:48;23.50;55.90
45693;DHT22;31402;44.752;-0.374;2022-09-21T18:35:06;23.40;56.00
45693;DHT22;31402;44.752;-0.374;2022-09-21T18:40:41;23.30;56.20
45693;DHT22;31402;44.752;-0.374;2022-09-21T18:48:58;23.10;56.90
45693;DHT22;31402;44.752;-0.374;2022-09-21T18:54:02;23.10;57.10
45693;DHT22;31402;44.752;-0.374;2022-09-21T18:56:35;23.10;57.10
45693;DHT22;31402;44.752;-0.374;2022-09-21T18:59:02;23.00;57.10
45693;DHT22;31402;44.752;-0.374;2022-09-21T19:01:28;22.90;57.20
45693;DHT22;31402;44.752;-0.374;2022-09-21T19:03:57;22.80;57.40
45693;DHT22;31402;44.752;-0.374;2022-09-21T19:17:23;22.50;57.80
45693;DHT22;31402;44.752;-0.374;2022-09-21T19:23:07;22.40;58.40
45693;DHT22;31402;44.752;-0.374;2022-09-21T19:30:52;22.30;58.70
45693;DHT22;31402;44.752;-0.374;2022-09-21T19:33:26;22.20;59.10